createdAt,value
2023-04-28T00:00:31.780Z,99468.39
2023-04-28T00:02:58.555Z,99470.73
2023-04-28T00:05:26.190Z,99471.89
2023-04-28T00:07:53.191Z,99472.70
2023-04-28T00:10:20.075Z,99472.84
2023-04-28T00:12:46.669Z,99471.60
2023-04-28T00:15:13.358Z,99476.53
2023-04-28T00:17:40.332Z,99480.45
2023-04-28T00:20:07.870Z,99480.63
2023-04-28T00:22:34.977Z,99481.64
2023-04-28T00:25:01.839Z,99486.05
2023-04-28T00:27:28.857Z,99486.02
2023-04-28T00:29:55.703Z,99490.11
2023-04-28T00:32:22.503Z,99489.77
2023-04-28T00:34:49.139Z,99489.60
2023-04-28T00:37:15.885Z,99493.02
2023-04-28T00:39:46.756Z,99493.37
2023-04-28T00:42:14.024Z,99498.83
2023-04-28T00:44:41.037Z,99498.15
2023-04-28T00:47:09.565Z,99505.34
2023-04-28T00:49:36.212Z,99508.08
2023-04-28T00:52:04.412Z,99515.94
2023-04-28T00:54:32.888Z,99522.23
2023-04-28T00:56:59.626Z,99526.52
2023-04-28T00:59:26.321Z,99527.02
2023-04-28T01:01:54.765Z,99522.21
2023-04-28T01:04:21.701Z,99524.60
2023-04-28T01:06:50.420Z,99521.84
2023-04-28T01:09:17.088Z,99525.57
2023-04-28T01:11:43.841Z,99529.48
2023-04-28T01:14:12.625Z,99532.89
2023-04-28T01:16:40.709Z,99532.22
2023-04-28T01:19:07.753Z,99530.84
2023-04-28T01:21:35.545Z,99528.54
2023-04-28T01:24:13.289Z,99529.17
2023-04-28T01:26:40.277Z,99528.47
2023-04-28T01:29:07.004Z,99530.49
2023-04-28T01:31:33.679Z,99531.80
2023-04-28T01:34:00.427Z,99533.47
2023-04-28T01:36:27.940Z,99538.38
2023-04-28T01:38:54.867Z,99540.23
2023-04-28T01:41:21.900Z,99539.50
2023-04-28T01:43:48.599Z,99540.52
2023-04-28T01:46:15.359Z,99540.83
2023-04-28T01:48:42.024Z,99540.98
2023-04-28T01:51:08.807Z,99538.23
2023-04-28T01:53:37.711Z,99538.89
2023-04-28T01:56:04.500Z,99532.73
2023-04-28T01:58:31.068Z,99533.05
2023-04-28T02:00:58.149Z,99533.87
2023-04-28T02:03:25.387Z,99538.95
2023-04-28T02:05:52.354Z,99537.54
2023-04-28T02:08:19.188Z,99540.04
2023-04-28T02:10:45.876Z,99542.58
2023-04-28T02:13:12.809Z,99542.36
2023-04-28T02:15:42.775Z,99543.67
2023-04-28T02:18:09.923Z,99543.81
2023-04-28T02:20:39.608Z,99541.89
2023-04-28T02:23:08.204Z,99546.80
2023-04-28T02:25:34.908Z,99548.45
2023-04-28T02:28:02.350Z,99545.30
2023-04-28T02:30:29.384Z,99542.52
2023-04-28T02:32:56.027Z,99542.80
2023-04-28T02:35:22.725Z,99545.13
2023-04-28T02:37:49.751Z,99544.57
2023-04-28T02:40:18.460Z,99545.70
2023-04-28T02:42:45.555Z,99544.29
2023-04-28T02:45:12.268Z,99545.44
2023-04-28T02:47:39.790Z,99544.67
2023-04-28T02:50:07.735Z,99555.17
2023-04-28T02:52:34.823Z,99558.21
2023-04-28T02:55:03.171Z,99559.55
2023-04-28T02:57:30.152Z,99567.19
2023-04-28T02:59:56.873Z,99565.84
2023-04-28T03:02:24.597Z,99571.44
2023-04-28T03:04:51.287Z,99576.36
2023-04-28T03:07:18.091Z,99579.39
2023-04-28T03:09:45.857Z,99583.80
2023-04-28T03:12:12.524Z,99590.92
2023-04-28T03:14:39.110Z,99592.71
2023-04-28T03:17:05.841Z,99594.70
2023-04-28T03:19:32.748Z,99597.76
2023-04-28T03:21:59.414Z,99603.36
2023-04-28T03:24:26.103Z,99601.80
2023-04-28T03:26:52.728Z,99604.30
2023-04-28T03:29:19.611Z,99607.52
2023-04-28T03:31:46.495Z,99612.81
2023-04-28T03:34:13.880Z,99618.93
2023-04-28T03:36:40.864Z,99621.14
2023-04-28T03:39:13.340Z,99622.63
2023-04-28T03:41:40.160Z,99625.12
2023-04-28T03:44:26.080Z,99625.77
2023-04-28T03:46:52.923Z,99631.02
2023-04-28T03:49:19.631Z,99634.40
2023-04-28T03:51:47.339Z,99631.86
2023-04-28T03:54:15.032Z,99631.90
2023-04-28T03:56:41.889Z,99634.30
2023-04-28T03:59:11.238Z,99633.55
2023-04-28T04:01:37.865Z,99638.07
2023-04-28T04:04:05.269Z,99638.86
2023-04-28T04:06:32.137Z,99638.81
2023-04-28T04:08:59.968Z,99640.16
2023-04-28T04:11:26.712Z,99644.96
2023-04-28T04:13:53.647Z,99642.75
2023-04-28T04:16:22.001Z,99643.79
2023-04-28T04:18:48.880Z,99647.42
2023-04-28T04:21:20.437Z,99644.73
2023-04-28T04:23:47.895Z,99643.23
2023-04-28T04:26:15.147Z,99648.08
2023-04-28T04:28:41.875Z,99650.38
2023-04-28T04:31:09.259Z,99651.84
2023-04-28T04:33:37.153Z,99650.99
2023-04-28T04:36:04.655Z,99649.16
2023-04-28T04:38:31.853Z,99650.40
2023-04-28T04:41:00.168Z,99649.23
2023-04-28T04:43:27.240Z,99651.95
2023-04-28T04:45:54.193Z,99650.18
2023-04-28T04:48:20.867Z,99650.88
2023-04-28T04:50:47.664Z,99652.36
2023-04-28T04:53:16.505Z,99653.87
2023-04-28T04:55:43.630Z,99651.66
2023-04-28T04:58:10.963Z,99654.41
2023-04-28T05:00:57.591Z,99658.03
2023-04-28T05:03:24.323Z,99662.85
2023-04-28T05:05:51.134Z,99662.33
2023-04-28T05:08:30.511Z,99662.95
2023-04-28T05:10:57.249Z,99665.52
2023-04-28T05:13:24.386Z,99668.59
2023-04-28T05:15:56.190Z,99668.64
2023-04-28T05:18:41.580Z,99669.79
2023-04-28T05:21:11.083Z,99663.58
2023-04-28T05:23:37.682Z,99667.27
2023-04-28T05:26:04.962Z,99665.25
2023-04-28T05:28:31.598Z,99663.96
2023-04-28T05:30:58.601Z,99663.40
2023-04-28T05:33:26.099Z,99666.11
2023-04-28T05:35:52.983Z,99668.64
2023-04-28T05:38:21.554Z,99670.33
2023-04-28T05:40:50.217Z,99667.56
2023-04-28T05:43:17.194Z,99671.13
2023-04-28T05:45:44.124Z,99672.11
2023-04-28T05:48:11.040Z,99668.98
2023-04-28T05:50:39.108Z,99670.79
2023-04-28T05:53:06.956Z,99670.68
2023-04-28T05:55:35.797Z,99667.16
2023-04-28T05:58:02.853Z,99670.33
2023-04-28T06:00:29.692Z,99663.54
2023-04-28T06:02:58.594Z,99661.85
2023-04-28T06:05:25.947Z,99660.70
2023-04-28T06:07:55.548Z,99661.73
2023-04-28T06:10:22.623Z,99660.02
2023-04-28T06:12:49.349Z,99651.63
2023-04-28T06:15:15.983Z,99651.94
2023-04-28T06:17:42.962Z,99654.48
2023-04-28T06:20:11.866Z,99658.56
2023-04-28T06:22:39.010Z,99652.95
2023-04-28T06:25:06.979Z,99653.03
2023-04-28T06:27:43.694Z,99657.09
2023-04-28T06:30:17.004Z,99661.15
2023-04-28T06:32:43.702Z,99661.23
2023-04-28T06:35:10.412Z,99663.36
2023-04-28T06:37:38.058Z,99662.56
2023-04-28T06:40:05.389Z,99667.23
2023-04-28T06:42:33.373Z,99668.45
2023-04-28T06:45:08.305Z,99671.74
2023-04-28T06:47:37.089Z,99676.59
2023-04-28T06:50:07.196Z,99670.79
2023-04-28T06:52:39.238Z,99669.59
2023-04-28T06:55:08.742Z,99670.98
2023-04-28T06:57:37.256Z,99675.33
2023-04-28T07:00:04.720Z,99679.14
2023-04-28T07:02:31.678Z,99673.13
2023-04-28T07:04:58.529Z,99672.97
2023-04-28T07:07:25.853Z,99679.02
2023-04-28T07:09:52.880Z,99678.52
2023-04-28T07:12:20.590Z,99680.79
2023-04-28T07:14:47.408Z,99670.63
2023-04-28T07:17:14.282Z,99677.34
2023-04-28T07:19:40.916Z,99672.34
2023-04-28T07:22:07.487Z,99676.80
2023-04-28T07:24:34.318Z,99681.61
2023-04-28T07:27:04.624Z,99684.17
2023-04-28T07:29:33.699Z,99685.19
2023-04-28T07:32:01.308Z,99677.21
2023-04-28T07:34:28.277Z,99677.48
2023-04-28T07:36:55.281Z,99681.73
2023-04-28T07:39:22.046Z,99678.56
2023-04-28T07:41:48.816Z,99681.94
2023-04-28T07:44:15.608Z,99681.87
2023-04-28T07:46:42.509Z,99689.61
2023-04-28T07:49:09.354Z,99688.05
2023-04-28T07:51:35.976Z,99682.67
2023-04-28T07:54:02.760Z,99685.58
2023-04-28T07:56:29.397Z,99678.79
2023-04-28T08:12:48.904Z,99683.86
2023-04-28T08:15:18.557Z,99676.42
2023-04-28T08:17:45.656Z,99679.36
2023-04-28T08:20:15.303Z,99682.67
2023-04-28T08:22:42.319Z,99684.14
2023-04-28T08:25:12.158Z,99684.73
2023-04-28T08:27:40.245Z,99685.10
2023-04-28T08:30:12.798Z,99685.48
2023-04-28T08:32:42.072Z,99681.20
2023-04-28T08:35:10.004Z,99680.61
2023-04-28T08:37:39.607Z,99679.28
2023-04-28T08:40:10.240Z,99682.56
2023-04-28T08:42:40.563Z,99679.39
2023-04-28T08:45:08.825Z,99688.33
2023-04-28T08:47:40.855Z,99683.17
2023-04-28T08:50:08.476Z,99682.65
2023-04-28T08:52:35.631Z,99678.33
2023-04-28T08:55:06.678Z,99675.77
2023-04-28T08:57:40.693Z,99685.98
2023-04-28T09:00:08.706Z,99683.25
2023-04-28T09:02:37.957Z,99676.93
2023-04-28T09:05:07.460Z,99676.64
2023-04-28T09:07:35.022Z,99681.48
2023-04-28T09:10:21.496Z,99677.90
2023-04-28T09:12:49.415Z,99678.00
2023-04-28T09:15:27.784Z,99677.14
2023-04-28T09:17:54.794Z,99677.97
2023-04-28T09:20:25.828Z,99678.17
2023-04-28T09:22:53.662Z,99692.77
2023-04-28T09:25:22.409Z,99686.45
2023-04-28T09:27:50.069Z,99686.41
2023-04-28T09:30:20.218Z,99684.26
2023-04-28T09:33:04.720Z,99679.20
2023-04-28T09:35:45.815Z,99673.02
2023-04-28T09:38:15.679Z,99668.75
2023-04-28T09:40:55.568Z,99663.18
2023-04-28T09:43:32.478Z,99663.76
2023-04-28T09:46:01.674Z,99662.09
2023-04-28T09:48:30.924Z,99666.64
2023-04-28T09:50:59.421Z,99666.98
2023-04-28T09:53:27.434Z,99666.11
2023-04-28T09:55:55.243Z,99662.61
2023-04-28T09:58:23.048Z,99663.02
2023-04-28T10:00:56.951Z,99665.73
2023-04-28T10:03:29.661Z,99672.70
2023-04-28T10:06:00.486Z,99669.20
2023-04-28T10:08:28.306Z,99667.22
2023-04-28T10:10:55.205Z,99663.94
2023-04-28T10:13:24.415Z,99663.90
2023-04-28T10:15:54.718Z,99660.59
2023-04-28T10:18:23.156Z,99660.95
2023-04-28T12:43:27.076Z,99631.61
2023-04-28T12:45:55.365Z,99632.88
2023-04-28T12:48:24.229Z,99639.45
2023-04-28T12:50:51.174Z,99638.06
2023-04-28T12:53:18.690Z,99640.29
2023-04-28T12:55:45.656Z,99639.97
2023-04-28T12:58:12.506Z,99635.41
2023-04-28T13:00:39.366Z,99637.74
2023-04-28T13:03:06.819Z,99639.73
2023-04-28T13:05:35.146Z,99634.68
2023-04-28T13:08:01.999Z,99632.27
2023-04-28T13:10:29.849Z,99622.77
2023-04-28T13:12:56.785Z,99626.11
2023-04-28T13:15:23.538Z,99624.92
2023-04-28T13:17:50.436Z,99624.30
2023-04-28T13:20:17.322Z,99620.73
2023-04-28T13:22:44.077Z,99622.67
2023-04-28T13:25:11.596Z,99623.89
2023-04-28T13:27:39.207Z,99618.52
2023-04-28T13:30:09.010Z,99617.58
2023-04-28T13:32:36.205Z,99616.62
2023-04-28T13:35:03.727Z,99617.54
2023-04-28T13:37:30.682Z,99618.86
2023-04-28T13:39:58.240Z,99613.71
2023-04-28T13:42:25.019Z,99614.38
2023-04-28T13:44:51.970Z,99617.18
2023-04-28T13:47:18.824Z,99609.15
2023-04-28T13:49:45.676Z,99599.70
2023-04-28T13:52:12.465Z,99601.94
2023-04-28T13:54:39.149Z,99603.52
2023-04-28T13:57:06.537Z,99598.34
2023-04-28T13:59:34.080Z,99597.66
2023-04-28T14:02:01.146Z,99598.80
2023-04-28T14:04:28.224Z,99602.23
2023-04-28T14:06:55.371Z,99609.80
2023-04-28T14:09:23.322Z,99611.46
2023-04-28T14:11:50.070Z,99616.58
2023-04-28T14:14:16.906Z,99613.55
2023-04-28T14:16:43.864Z,99613.92
2023-04-28T14:19:11.106Z,99614.45
2023-04-28T14:21:38.241Z,99615.15
2023-04-28T14:24:05.186Z,99610.66
2023-04-28T14:26:31.913Z,99609.27
2023-04-28T14:29:01.186Z,99608.38
2023-04-28T14:31:28.579Z,99608.20
2023-04-28T14:33:55.564Z,99601.27
2023-04-28T14:36:22.306Z,99602.61
2023-04-28T14:38:49.082Z,99602.44
2023-04-28T14:41:15.927Z,99605.89
2023-04-28T14:43:43.464Z,99611.95
2023-04-28T14:46:11.188Z,99614.20
2023-04-28T14:48:38.208Z,99613.84
2023-04-28T14:51:05.673Z,99610.38
2023-04-28T14:53:32.485Z,99609.71
2023-04-28T14:56:10.857Z,99610.94
2023-04-28T14:58:44.601Z,99608.89
2023-04-28T15:01:11.368Z,99613.41
2023-04-28T15:03:38.405Z,99612.05
2023-04-28T15:06:05.668Z,99616.37
2023-04-28T15:08:33.453Z,99612.57
2023-04-28T15:11:00.397Z,99611.23
2023-04-28T15:13:28.645Z,99611.61
2023-04-28T15:15:56.240Z,99606.48
2023-04-28T15:18:23.414Z,99609.13
2023-04-28T15:20:51.952Z,99608.31
2023-04-28T15:23:19.938Z,99614.57
2023-04-28T15:25:47.260Z,99614.73
2023-04-28T15:28:14.095Z,99613.20
2023-04-28T15:30:40.988Z,99611.84
2023-04-28T15:33:07.860Z,99609.60
2023-04-28T15:35:35.093Z,99610.83
2023-04-28T15:38:01.993Z,99616.52
2023-04-28T15:40:28.972Z,99620.50
2023-04-28T15:42:56.054Z,99621.22
2023-04-28T15:45:22.998Z,99624.70
2023-04-28T15:47:50.806Z,99631.09
2023-04-28T15:50:19.829Z,99633.34
2023-04-28T15:52:47.560Z,99630.93
2023-04-28T15:55:15.382Z,99626.48
2023-04-28T15:57:42.750Z,99628.02
2023-04-28T16:00:10.320Z,99629.42
2023-04-28T16:02:41.094Z,99627.52
2023-04-28T16:05:08.713Z,99632.88
2023-04-28T16:07:41.085Z,99635.13
2023-04-28T16:10:09.922Z,99637.34
2023-04-28T16:12:36.868Z,99641.29
2023-04-28T16:15:04.198Z,99643.71
2023-04-28T16:17:31.081Z,99643.70
2023-04-28T16:19:57.970Z,99647.32
2023-04-28T16:22:25.329Z,99648.52
2023-04-28T16:24:53.857Z,99647.80
2023-04-28T16:27:20.924Z,99645.92
2023-04-28T16:29:47.695Z,99647.79
2023-04-28T16:32:14.862Z,99649.85
2023-04-28T16:34:41.952Z,99646.21
2023-04-28T16:37:09.062Z,99649.30
2023-04-28T16:39:35.931Z,99650.83
2023-04-28T16:42:03.046Z,99654.09
2023-04-28T16:44:30.660Z,99655.09
2023-04-28T16:46:58.250Z,99652.33
2023-04-28T16:49:25.126Z,99657.65
2023-04-28T16:52:02.246Z,99660.90
2023-04-28T16:54:29.542Z,99663.77
2023-04-28T16:56:59.880Z,99666.48
2023-04-28T16:59:29.736Z,99668.17
2023-04-28T17:01:57.593Z,99668.84
2023-04-28T17:04:25.220Z,99667.09
2023-04-28T17:06:53.058Z,99675.14
2023-04-28T17:09:20.780Z,99674.92
2023-04-28T17:11:47.996Z,99677.57
2023-04-28T17:14:15.337Z,99682.67
2023-04-28T17:16:46.919Z,99686.59
2023-04-28T17:19:14.501Z,99688.08
2023-04-28T17:21:41.431Z,99688.73
2023-04-28T17:24:09.252Z,99691.08
2023-04-28T17:26:36.514Z,99698.44
2023-04-28T17:29:06.409Z,99697.16
2023-04-28T17:31:33.565Z,99699.18
2023-04-28T17:34:00.480Z,99701.19
2023-04-28T17:36:28.847Z,99702.33
2023-04-28T17:38:55.740Z,99703.30
2023-04-28T17:41:27.433Z,99699.80
2023-04-28T17:43:54.404Z,99700.24
2023-04-28T17:46:21.980Z,99702.61
2023-04-28T17:48:49.237Z,99703.23
2023-04-28T17:51:16.032Z,99705.75
2023-04-28T17:53:42.833Z,99703.61
2023-04-28T17:56:09.788Z,99705.95
2023-04-28T17:58:37.494Z,99707.27
2023-04-28T18:01:05.518Z,99710.29
2023-04-28T18:03:34.817Z,99711.96
2023-04-28T18:06:02.021Z,99715.50
2023-04-28T18:08:29.200Z,99722.83
2023-04-28T18:10:59.012Z,99721.90
2023-04-28T18:13:26.668Z,99720.27
2023-04-28T18:15:53.719Z,99723.98
2023-04-28T18:18:20.748Z,99725.48
2023-04-28T18:20:47.870Z,99724.58
2023-04-28T18:23:15.355Z,99717.49
2023-04-28T18:25:42.218Z,99716.24
2023-04-28T18:28:10.506Z,99714.64
2023-04-28T18:30:40.174Z,99713.52
2023-04-28T18:33:07.569Z,99715.66
2023-04-28T18:35:35.111Z,99717.65
2023-04-28T18:38:02.168Z,99714.83
2023-04-28T18:40:33.711Z,99716.29
2023-04-28T18:43:02.108Z,99716.05
2023-04-28T18:45:34.391Z,99719.23
2023-04-28T18:48:02.704Z,99715.06
2023-04-28T18:50:30.243Z,99714.15
2023-04-28T18:52:57.878Z,99713.77
2023-04-28T18:55:24.925Z,99709.09
2023-04-28T18:57:52.158Z,99710.60
2023-04-28T19:00:19.552Z,99714.13
2023-04-28T19:02:47.201Z,99722.66
2023-04-28T19:05:14.400Z,99722.42
2023-04-28T19:07:42.175Z,99725.44
2023-04-28T19:10:09.935Z,99724.00
2023-04-28T19:12:37.120Z,99723.77
2023-04-28T19:15:04.675Z,99724.91
2023-04-28T19:17:31.933Z,99730.34
2023-04-28T19:19:58.946Z,99729.40
2023-04-28T19:22:33.207Z,99736.50
2023-04-28T19:25:00.464Z,99736.63
2023-04-28T19:27:32.384Z,99735.02
2023-04-28T19:30:00.158Z,99736.33
2023-04-28T19:32:27.314Z,99739.51
2023-04-28T19:34:55.720Z,99740.13
2023-04-28T19:37:23.146Z,99742.09
2023-04-28T19:39:52.908Z,99740.31
2023-04-28T19:42:19.913Z,99740.39
2023-04-28T19:44:47.343Z,99736.55
2023-04-28T19:47:25.549Z,99737.50
2023-04-28T19:49:55.739Z,99738.43
2023-04-28T19:52:22.925Z,99735.79
2023-04-28T19:54:49.915Z,99738.25
2023-04-28T19:57:17.228Z,99736.61
2023-04-28T19:59:47.013Z,99737.72
2023-04-28T20:02:14.279Z,99739.50
2023-04-28T20:04:41.962Z,99741.41
2023-04-28T20:07:10.800Z,99744.23
2023-04-28T20:09:40.738Z,99742.93
2023-04-28T20:12:08.937Z,99748.33
2023-04-28T20:14:35.934Z,99744.48
2023-04-28T20:17:05.653Z,99739.63
2023-04-28T20:19:32.827Z,99737.02
2023-04-28T20:22:02.491Z,99743.30
2023-04-28T20:24:29.550Z,99743.60
2023-04-28T20:26:56.657Z,99740.84
2023-04-28T20:29:24.325Z,99744.08
2023-04-28T20:31:51.667Z,99745.23
2023-04-28T20:34:20.894Z,99755.62
2023-04-28T20:36:50.978Z,99760.85
2023-04-28T20:39:17.962Z,99760.61
2023-04-28T20:41:44.968Z,99760.56
2023-04-28T20:44:12.098Z,99758.98
2023-04-28T20:46:39.360Z,99760.52
2023-04-28T20:49:06.713Z,99759.62
2023-04-28T20:51:37.558Z,99759.71
2023-04-28T20:54:07.519Z,99758.61
2023-04-28T20:56:34.703Z,99759.89
2023-04-28T20:59:02.022Z,99766.70
2023-04-28T21:01:28.958Z,99764.45
2023-04-28T21:03:56.607Z,99757.41
2023-04-28T21:06:23.704Z,99758.74
2023-04-28T21:08:50.940Z,99759.89
2023-04-28T21:11:20.492Z,99761.88
2023-04-28T21:13:47.642Z,99763.52
2023-04-28T21:16:20.981Z,99764.98
2023-04-28T21:18:49.396Z,99761.66
2023-04-28T21:21:16.974Z,99763.42
2023-04-28T21:23:44.411Z,99758.02
2023-04-28T21:26:11.519Z,99757.64
2023-04-28T21:28:40.056Z,99759.28
2023-04-28T21:31:07.504Z,99757.34
2023-04-28T21:33:34.562Z,99756.11
2023-04-28T21:36:08.145Z,99756.23
2023-04-28T21:38:36.966Z,99752.91
2023-04-28T21:41:03.815Z,99750.79
2023-04-28T21:43:30.956Z,99751.23
2023-04-28T21:45:57.887Z,99747.55
2023-04-28T21:48:25.112Z,99747.65
2023-04-28T21:50:52.224Z,99746.25
2023-04-28T21:53:19.445Z,99747.41
2023-04-28T21:55:47.540Z,99745.97
2023-04-28T21:58:15.381Z,99750.34
2023-04-28T22:00:43.856Z,99752.65
2023-04-28T22:03:11.339Z,99754.11
2023-04-28T22:05:42.565Z,99754.24
2023-04-28T22:08:09.577Z,99746.33
2023-04-28T22:10:37.069Z,99747.45
2023-04-28T22:13:05.268Z,99747.21
2023-04-28T22:15:32.999Z,99746.63
2023-04-28T22:18:05.520Z,99747.92
2023-04-28T22:20:32.929Z,99740.69
2023-04-28T22:23:00.328Z,99739.03
2023-04-28T22:25:27.552Z,99729.18
2023-04-28T22:27:54.830Z,99731.16
2023-04-28T22:30:24.338Z,99732.98
2023-04-28T22:32:52.822Z,99740.47
2023-04-28T22:35:19.888Z,99735.46
2023-04-28T22:37:46.984Z,99734.55
2023-04-28T22:40:16.792Z,99735.86
2023-04-28T22:42:44.111Z,99735.81
2023-04-28T22:45:11.960Z,99733.36
2023-04-28T22:47:40.851Z,99730.93
2023-04-28T22:50:09.378Z,99731.38
2023-04-28T22:52:36.673Z,99724.95
2023-04-28T22:55:03.747Z,99727.20
2023-04-28T22:57:30.870Z,99722.85
2023-04-28T22:59:58.226Z,99726.02
2023-04-28T23:02:25.469Z,99717.41
2023-04-28T23:04:52.849Z,99717.80
2023-04-28T23:07:19.790Z,99717.02
2023-04-28T23:09:46.885Z,99710.46
2023-04-28T23:12:14.009Z,99708.02
2023-04-28T23:14:41.042Z,99707.60
2023-04-28T23:17:08.031Z,99709.05
2023-04-28T23:19:47.401Z,99707.45
2023-04-28T23:22:14.424Z,99710.82
2023-04-28T23:24:42.564Z,99711.13
2023-04-28T23:27:09.673Z,99703.70
2023-04-28T23:29:36.723Z,99704.14
2023-04-28T23:32:04.413Z,99707.14
2023-04-28T23:34:31.506Z,99711.30
2023-04-28T23:36:58.632Z,99713.81
2023-04-28T23:39:25.885Z,99714.25
2023-04-28T23:41:53.006Z,99713.15
2023-04-28T23:44:19.996Z,99716.15
2023-04-28T23:46:47.347Z,99721.66
2023-04-28T23:49:14.329Z,99717.82
2023-04-28T23:51:41.290Z,99712.06
2023-04-28T23:54:10.719Z,99711.81
2023-04-28T23:56:37.767Z,99710.52
2023-04-28T23:59:05.697Z,99713.86
